CCA8665 ZBAD-ZYCC
Flight info
| Callsign | CCA8665 |
|---|---|
| Flight time | N/A |
| Altitude | 37100 |
| Route | DOTRA6K DOTRA B334 TGO G341 BUTET BUTET4A |
| Aircraft | B77W/H-SDE1E2E3FGHIJ2J3J4J5M1RWXY/LB1D1 |
Departure
| Time | 2026-04-26 08:27 |
|---|---|
| Airport | Beijing Daxing International Airport (ZBAD) |
Arrival
| Time | N/A |
|---|---|
| Airport | Changchun Longjia International Airport (ZYCC) |
| Time | Latitude | Longitude | Altitude | Speed | Heading |
|---|---|---|---|---|---|
| 2026-04-26 07:48 | 39.51542 | 116.41903 | 97 ft | 0 kts | 262° |
| 2026-04-26 08:06 | 39.51542 | 116.41902 | 97 ft | 0 kts | 262° |
| 2026-04-26 08:08 | 39.51542 | 116.41903 | 97 ft | 0 kts | 262° |
| 2026-04-26 08:11 | 39.51543 | 116.41914 | 97 ft | 2 kts | 262° |
| 2026-04-26 08:12 | 39.51545 | 116.41933 | 97 ft | 2 kts | 262° |
| 2026-04-26 08:12 | 39.51545 | 116.41952 | 97 ft | 2 kts | 284° |
| 2026-04-26 08:12 | 39.51539 | 116.41970 | 97 ft | 2 kts | 307° |
| 2026-04-26 08:12 | 39.51529 | 116.41983 | 97 ft | 2 kts | 328° |
| 2026-04-26 08:13 | 39.51516 | 116.41991 | 97 ft | 2 kts | 348° |
| 2026-04-26 08:13 | 39.51501 | 116.41993 | 97 ft | 2 kts | 356° |
| 2026-04-26 08:13 | 39.51486 | 116.41994 | 97 ft | 2 kts | 353° |
| 2026-04-26 08:13 | 39.51482 | 116.41995 | 97 ft | 0 kts | 352° |
| 2026-04-26 08:16 | 39.51482 | 116.41994 | 97 ft | 0 kts | 352° |
| 2026-04-26 08:17 | 39.51502 | 116.41991 | 97 ft | 5 kts | 353° |
| 2026-04-26 08:17 | 39.51557 | 116.41990 | 97 ft | 9 kts | 12° |
| 2026-04-26 08:17 | 39.51596 | 116.42063 | 97 ft | 5 kts | 84° |
| 2026-04-26 08:17 | 39.51586 | 116.42090 | 97 ft | 4 kts | 163° |
| 2026-04-26 08:18 | 39.51543 | 116.42101 | 97 ft | 8 kts | 170° |
| 2026-04-26 08:18 | 39.51472 | 116.42117 | 97 ft | 12 kts | 173° |
| 2026-04-26 08:18 | 39.51416 | 116.42152 | 97 ft | 9 kts | 106° |
| 2026-04-26 08:18 | 39.51419 | 116.42258 | 97 ft | 13 kts | 84° |
| 2026-04-26 08:19 | 39.51429 | 116.42392 | 97 ft | 16 kts | 81° |
| 2026-04-26 08:19 | 39.51450 | 116.42548 | 97 ft | 19 kts | 81° |
| 2026-04-26 08:19 | 39.51465 | 116.42731 | 97 ft | 21 kts | 81° |
| 2026-04-26 08:19 | 39.51486 | 116.42931 | 97 ft | 23 kts | 83° |
| 2026-04-26 08:20 | 39.51499 | 116.43059 | 97 ft | 8 kts | 65° |
| 2026-04-26 08:20 | 39.51547 | 116.43100 | 97 ft | 8 kts | 15° |
| 2026-04-26 08:20 | 39.51552 | 116.43102 | 97 ft | 0 kts | 14° |
| 2026-04-26 08:25 | 39.51570 | 116.43108 | 97 ft | 4 kts | 15° |
| 2026-04-26 08:26 | 39.51617 | 116.43124 | 96 ft | 8 kts | 15° |
| 2026-04-26 08:26 | 39.51655 | 116.43159 | 97 ft | 6 kts | 73° |
| 2026-04-26 08:26 | 39.51649 | 116.43227 | 97 ft | 3 kts | 102° |
| 2026-04-26 08:26 | 39.51648 | 116.43231 | 97 ft | 0 kts | 102° |
| 2026-04-26 08:27 | 39.51644 | 116.43258 | 96 ft | 17 kts | 102° |
| 2026-04-26 08:27 | 39.51545 | 116.43816 | 97 ft | 107 kts | 102° |
| 2026-04-26 08:27 | 39.51312 | 116.45094 | 225 ft | 172 kts | 105° |
| 2026-04-26 08:27 | 39.51017 | 116.46643 | 1094 ft | 186 kts | 104° |
| 2026-04-26 08:28 | 39.50773 | 116.48099 | 2349 ft | 168 kts | 104° |
| 2026-04-26 08:28 | 39.50499 | 116.49662 | 2945 ft | 186 kts | 104° |
| 2026-04-26 08:28 | 39.50191 | 116.51337 | 3581 ft | 201 kts | 104° |
| 2026-04-26 08:28 | 39.49864 | 116.53168 | 4220 ft | 218 kts | 103° |
| 2026-04-26 08:29 | 39.49519 | 116.55119 | 4796 ft | 236 kts | 103° |
| 2026-04-26 08:29 | 39.49128 | 116.57303 | 4929 ft | 257 kts | 103° |
| 2026-04-26 08:29 | 39.48720 | 116.59571 | 4927 ft | 263 kts | 103° |
| 2026-04-26 08:29 | 39.48312 | 116.61912 | 4919 ft | 265 kts | 98° |
| 2026-04-26 08:30 | 39.48416 | 116.64263 | 4910 ft | 267 kts | 72° |
| 2026-04-26 08:30 | 39.49175 | 116.66457 | 4926 ft | 268 kts | 62° |
| 2026-04-26 08:30 | 39.50090 | 116.68562 | 4926 ft | 268 kts | 60° |
| 2026-04-26 08:30 | 39.51024 | 116.70648 | 4926 ft | 268 kts | 60° |
| 2026-04-26 08:31 | 39.51962 | 116.72747 | 4926 ft | 268 kts | 60° |
| 2026-04-26 08:31 | 39.52886 | 116.74821 | 4926 ft | 268 kts | 60° |
| 2026-04-26 08:31 | 39.53828 | 116.76935 | 4926 ft | 268 kts | 60° |
| 2026-04-26 08:31 | 39.54763 | 116.79036 | 4925 ft | 269 kts | 61° |
| 2026-04-26 08:32 | 39.55626 | 116.81273 | 5514 ft | 288 kts | 65° |
| 2026-04-26 08:32 | 39.56451 | 116.83521 | 6964 ft | 277 kts | 65° |
| 2026-04-26 08:32 | 39.57274 | 116.85724 | 8141 ft | 277 kts | 64° |
| 2026-04-26 08:32 | 39.58123 | 116.87977 | 9133 ft | 284 kts | 64° |
| 2026-04-26 08:33 | 39.58999 | 116.90296 | 10185 ft | 289 kts | 64° |
| 2026-04-26 08:33 | 39.59885 | 116.92639 | 10966 ft | 303 kts | 64° |
| 2026-04-26 08:33 | 39.60915 | 116.95108 | 11567 ft | 320 kts | 57° |
| 2026-04-26 08:33 | 39.62281 | 116.97463 | 12118 ft | 336 kts | 47° |
| 2026-04-26 08:34 | 39.63995 | 116.99603 | 12672 ft | 352 kts | 37° |
| 2026-04-26 08:34 | 39.66045 | 117.01418 | 13236 ft | 365 kts | 25° |
| 2026-04-26 08:34 | 39.68394 | 117.02779 | 13827 ft | 377 kts | 15° |
| 2026-04-26 08:34 | 39.70991 | 117.03578 | 14521 ft | 386 kts | 4° |
| 2026-04-26 08:35 | 39.73689 | 117.03721 | 15442 ft | 389 kts | 353° |
| 2026-04-26 08:35 | 39.76339 | 117.03200 | 16481 ft | 389 kts | 344° |
| 2026-04-26 08:35 | 39.78924 | 117.02344 | 17451 ft | 392 kts | 344° |
| 2026-04-26 08:35 | 39.81625 | 117.01562 | 18380 ft | 397 kts | 346° |
| 2026-04-26 08:36 | 39.84325 | 117.00901 | 19231 ft | 404 kts | 347° |
| 2026-04-26 08:36 | 39.87132 | 117.00306 | 20075 ft | 411 kts | 348° |
| 2026-04-26 08:36 | 39.89964 | 116.99765 | 20876 ft | 417 kts | 348° |
| 2026-04-26 08:36 | 39.92847 | 116.99252 | 21644 ft | 424 kts | 349° |
| 2026-04-26 08:37 | 39.95806 | 116.98752 | 22423 ft | 430 kts | 349° |
| 2026-04-26 08:37 | 39.98792 | 116.98264 | 23204 ft | 435 kts | 349° |
| 2026-04-26 08:37 | 40.01800 | 116.97785 | 23988 ft | 439 kts | 349° |
| 2026-04-26 08:37 | 40.04834 | 116.97309 | 24737 ft | 443 kts | 349° |
| 2026-04-26 08:38 | 40.07706 | 116.96863 | 25450 ft | 446 kts | 348° |
| 2026-04-26 08:38 | 40.10506 | 116.96432 | 26129 ft | 448 kts | 348° |
| 2026-04-26 08:38 | 40.13594 | 116.95957 | 26867 ft | 451 kts | 348° |
| 2026-04-26 08:38 | 40.16740 | 116.95475 | 27474 ft | 456 kts | 348° |
| 2026-04-26 08:39 | 40.19908 | 116.94991 | 28058 ft | 462 kts | 348° |
| 2026-04-26 08:39 | 40.23112 | 116.94501 | 28768 ft | 465 kts | 348° |
| 2026-04-26 08:39 | 40.26327 | 116.94012 | 29514 ft | 467 kts | 348° |
| 2026-04-26 08:39 | 40.29590 | 116.93515 | 30360 ft | 467 kts | 347° |
| 2026-04-26 08:40 | 40.32782 | 116.93031 | 31232 ft | 463 kts | 347° |
| 2026-04-26 08:40 | 40.35924 | 116.92554 | 32130 ft | 457 kts | 347° |
| 2026-04-26 08:40 | 40.39038 | 116.92081 | 33003 ft | 450 kts | 346° |
| 2026-04-26 08:40 | 40.42114 | 116.91612 | 33764 ft | 444 kts | 346° |
| 2026-04-26 08:41 | 40.45174 | 116.91144 | 34371 ft | 442 kts | 346° |
| 2026-04-26 08:41 | 40.48222 | 116.90567 | 34887 ft | 436 kts | 341° |
| 2026-04-26 08:41 | 40.51125 | 116.89578 | 35297 ft | 433 kts | 337° |
| 2026-04-26 08:41 | 40.54005 | 116.88483 | 35651 ft | 434 kts | 337° |
| 2026-04-26 08:42 | 40.56934 | 116.87364 | 36018 ft | 434 kts | 337° |
| 2026-04-26 08:42 | 40.59829 | 116.86260 | 36486 ft | 433 kts | 337° |
| 2026-04-26 08:42 | 40.62684 | 116.85171 | 36908 ft | 433 kts | 337° |
| 2026-04-26 08:42 | 40.65581 | 116.84064 | 36996 ft | 436 kts | 338° |
| 2026-04-26 08:43 | 40.71367 | 116.81859 | 37006 ft | 434 kts | 338° |
| 2026-04-26 08:43 | 40.77356 | 116.80377 | 36995 ft | 442 kts | 350° |
| 2026-04-26 08:44 | 40.80459 | 116.80398 | 37009 ft | 453 kts | 354° |
| 2026-04-26 08:44 | 40.83622 | 116.80565 | 37004 ft | 453 kts | 355° |
| 2026-04-26 08:44 | 40.89922 | 116.80911 | 37011 ft | 453 kts | 355° |
| 2026-04-26 08:45 | 40.96212 | 116.81247 | 37011 ft | 455 kts | 355° |
| 2026-04-26 08:45 | 41.02543 | 116.81582 | 37018 ft | 455 kts | 355° |
| 2026-04-26 08:46 | 41.08783 | 116.81911 | 37017 ft | 455 kts | 355° |
| 2026-04-26 08:46 | 41.15071 | 116.82241 | 37021 ft | 454 kts | 355° |
| 2026-04-26 08:47 | 41.21400 | 116.82573 | 37274 ft | 456 kts | 355° |
| 2026-04-26 08:47 | 41.24571 | 116.82739 | 36943 ft | 455 kts | 355° |
| 2026-04-26 08:47 | 41.27710 | 116.82906 | 37262 ft | 452 kts | 355° |
| 2026-04-26 08:48 | 41.30844 | 116.83070 | 37085 ft | 455 kts | 354° |
| 2026-04-26 08:48 | 41.33997 | 116.83238 | 37047 ft | 449 kts | 354° |
| 2026-04-26 08:48 | 41.40247 | 116.83566 | 37044 ft | 453 kts | 355° |
| 2026-04-26 08:49 | 41.46524 | 116.83898 | 37052 ft | 452 kts | 354° |
| 2026-04-26 08:49 | 41.52810 | 116.84229 | 37054 ft | 452 kts | 354° |
| 2026-04-26 08:50 | 41.58660 | 116.84615 | 37056 ft | 456 kts | 359° |
| 2026-04-26 08:50 | 41.64856 | 116.86763 | 37052 ft | 470 kts | 15° |
| 2026-04-26 08:51 | 41.70570 | 116.91428 | 37063 ft | 492 kts | 33° |
| 2026-04-26 08:51 | 41.73044 | 116.94679 | 37068 ft | 504 kts | 42° |
| 2026-04-26 08:51 | 41.75145 | 116.98467 | 37072 ft | 515 kts | 52° |
| 2026-04-26 08:52 | 41.76826 | 117.02742 | 37080 ft | 518 kts | 59° |
| 2026-04-26 08:52 | 41.79774 | 117.11504 | 37066 ft | 525 kts | 60° |
| 2026-04-26 08:53 | 41.82761 | 117.20344 | 37064 ft | 522 kts | 59° |
| 2026-04-26 08:53 | 41.85774 | 117.29187 | 37069 ft | 524 kts | 59° |
| 2026-04-26 08:54 | 41.88798 | 117.38045 | 37064 ft | 523 kts | 59° |
| 2026-04-26 08:54 | 41.91801 | 117.46838 | 37070 ft | 525 kts | 59° |
| 2026-04-26 08:55 | 41.94833 | 117.55733 | 37076 ft | 524 kts | 59° |
| 2026-04-26 08:55 | 41.97819 | 117.64510 | 37066 ft | 524 kts | 59° |
| 2026-04-26 08:56 | 42.00843 | 117.73422 | 37043 ft | 524 kts | 60° |
| 2026-04-26 08:56 | 42.03838 | 117.82277 | 37067 ft | 525 kts | 60° |
| 2026-04-26 08:57 | 42.06844 | 117.91188 | 37054 ft | 524 kts | 60° |
| 2026-04-26 08:57 | 42.09850 | 118.00123 | 37066 ft | 526 kts | 60° |
| 2026-04-26 08:58 | 42.12858 | 118.09097 | 37074 ft | 523 kts | 59° |
| 2026-04-26 08:58 | 42.15849 | 118.18044 | 37050 ft | 524 kts | 60° |
| 2026-04-26 08:59 | 42.18821 | 118.26954 | 37054 ft | 524 kts | 59° |
| 2026-04-26 08:59 | 42.22012 | 118.35740 | 37049 ft | 523 kts | 58° |
| 2026-04-26 09:00 | 42.25206 | 118.44483 | 37047 ft | 522 kts | 57° |
| 2026-04-26 09:00 | 42.28393 | 118.53258 | 37043 ft | 522 kts | 57° |
| 2026-04-26 09:01 | 42.31573 | 118.62057 | 37057 ft | 523 kts | 58° |
| 2026-04-26 09:01 | 42.34719 | 118.70801 | 37030 ft | 520 kts | 58° |
| 2026-04-26 09:02 | 42.37871 | 118.79591 | 37035 ft | 515 kts | 59° |
| 2026-04-26 09:02 | 42.40932 | 118.88168 | 37022 ft | 500 kts | 58° |
| 2026-04-26 09:03 | 42.43947 | 118.96623 | 37045 ft | 502 kts | 58° |
| 2026-04-26 09:03 | 42.46955 | 119.05091 | 37064 ft | 502 kts | 58° |
| 2026-04-26 09:04 | 42.49983 | 119.13642 | 37063 ft | 501 kts | 58° |
| 2026-04-26 09:04 | 42.52985 | 119.22145 | 37045 ft | 504 kts | 59° |
| 2026-04-26 09:05 | 42.55989 | 119.30682 | 37049 ft | 501 kts | 59° |
| 2026-04-26 09:05 | 42.58991 | 119.39242 | 37047 ft | 501 kts | 59° |
| 2026-04-26 09:06 | 42.61967 | 119.47749 | 37045 ft | 503 kts | 59° |
| 2026-04-26 09:06 | 42.64933 | 119.56260 | 37043 ft | 501 kts | 59° |
| 2026-04-26 09:07 | 42.67912 | 119.64831 | 37040 ft | 501 kts | 59° |
| 2026-04-26 09:07 | 42.70866 | 119.73356 | 37037 ft | 501 kts | 60° |
| 2026-04-26 09:08 | 42.73821 | 119.81909 | 37045 ft | 501 kts | 60° |
| 2026-04-26 09:08 | 42.76788 | 119.90529 | 37057 ft | 501 kts | 60° |
| 2026-04-26 09:09 | 42.79731 | 119.99103 | 37050 ft | 502 kts | 60° |
| 2026-04-26 09:09 | 42.82663 | 120.07672 | 37051 ft | 501 kts | 60° |
| 2026-04-26 09:10 | 42.85592 | 120.16257 | 37049 ft | 503 kts | 60° |
| 2026-04-26 09:10 | 42.88526 | 120.24886 | 37052 ft | 502 kts | 60° |
| 2026-04-26 09:11 | 42.91453 | 120.33522 | 37054 ft | 502 kts | 60° |
| 2026-04-26 09:11 | 42.94349 | 120.42093 | 37054 ft | 500 kts | 60° |
| 2026-04-26 09:12 | 42.97253 | 120.50691 | 37053 ft | 501 kts | 59° |
| 2026-04-26 09:12 | 43.00303 | 120.59212 | 37058 ft | 500 kts | 59° |
| 2026-04-26 09:13 | 43.03344 | 120.67703 | 37051 ft | 501 kts | 59° |
| 2026-04-26 09:13 | 43.06393 | 120.76257 | 37049 ft | 499 kts | 59° |
| 2026-04-26 09:14 | 43.09368 | 120.84648 | 37051 ft | 485 kts | 59° |
| 2026-04-26 09:14 | 43.12283 | 120.92893 | 37054 ft | 482 kts | 59° |
| 2026-04-26 09:15 | 43.15192 | 121.01139 | 37057 ft | 482 kts | 59° |
| 2026-04-26 09:15 | 43.17960 | 121.09016 | 37058 ft | 483 kts | 60° |
| 2026-04-26 09:16 | 43.20847 | 121.17255 | 37054 ft | 483 kts | 60° |
| 2026-04-26 09:16 | 43.23740 | 121.25542 | 37045 ft | 483 kts | 60° |
| 2026-04-26 09:17 | 43.26641 | 121.33874 | 37047 ft | 484 kts | 60° |
| 2026-04-26 09:17 | 43.29525 | 121.42182 | 37048 ft | 482 kts | 59° |
| 2026-04-26 09:18 | 43.32406 | 121.50507 | 37048 ft | 483 kts | 60° |
| 2026-04-26 09:18 | 43.35285 | 121.58852 | 37030 ft | 486 kts | 60° |
| 2026-04-26 09:19 | 43.38206 | 121.67338 | 37047 ft | 500 kts | 60° |
| 2026-04-26 09:19 | 43.41218 | 121.76117 | 37045 ft | 514 kts | 61° |
| 2026-04-26 09:20 | 43.44262 | 121.85027 | 37046 ft | 521 kts | 61° |
| 2026-04-26 09:20 | 43.47316 | 121.94002 | 37045 ft | 517 kts | 61° |
| 2026-04-26 09:21 | 43.50360 | 122.02969 | 37046 ft | 520 kts | 61° |
| 2026-04-26 09:21 | 43.53418 | 122.12009 | 37041 ft | 518 kts | 61° |
| 2026-04-26 09:22 | 43.55808 | 122.21336 | 37035 ft | 526 kts | 76° |
| 2026-04-26 09:22 | 43.56630 | 122.31326 | 37043 ft | 528 kts | 83° |
| 2026-04-26 09:23 | 43.57135 | 122.39765 | 37044 ft | 529 kts | 83° |
| 2026-04-26 09:23 | 43.57807 | 122.51432 | 37045 ft | 528 kts | 83° |
| 2026-04-26 09:24 | 43.58373 | 122.61491 | 37039 ft | 529 kts | 83° |
| 2026-04-26 09:24 | 43.58928 | 122.71590 | 37035 ft | 530 kts | 84° |
| 2026-04-26 09:25 | 43.59477 | 122.81755 | 37034 ft | 531 kts | 84° |
| 2026-04-26 09:25 | 43.60010 | 122.91829 | 37034 ft | 529 kts | 84° |
| 2026-04-26 09:26 | 43.60540 | 123.02010 | 37041 ft | 532 kts | 84° |
| 2026-04-26 09:26 | 43.61056 | 123.12118 | 37059 ft | 529 kts | 84° |
| 2026-04-26 09:27 | 43.61570 | 123.22178 | 37044 ft | 528 kts | 83° |
| 2026-04-26 09:27 | 43.62112 | 123.30522 | 36913 ft | 524 kts | 83° |
| 2026-04-26 09:27 | 43.62549 | 123.37180 | 36610 ft | 527 kts | 83° |
| 2026-04-26 09:28 | 43.62878 | 123.42258 | 36331 ft | 530 kts | 83° |
| 2026-04-26 09:28 | 43.63200 | 123.47284 | 35910 ft | 528 kts | 83° |
| 2026-04-26 09:28 | 43.63516 | 123.52274 | 35365 ft | 528 kts | 83° |
| 2026-04-26 09:28 | 43.63833 | 123.57306 | 34828 ft | 527 kts | 83° |
| 2026-04-26 09:29 | 43.64145 | 123.62328 | 34332 ft | 524 kts | 83° |
| 2026-04-26 09:29 | 43.64452 | 123.67291 | 33847 ft | 522 kts | 84° |
| 2026-04-26 09:29 | 43.64750 | 123.72164 | 33412 ft | 517 kts | 83° |
| 2026-04-26 09:29 | 43.65043 | 123.76989 | 32991 ft | 513 kts | 83° |
| 2026-04-26 09:30 | 43.65341 | 123.81926 | 32544 ft | 509 kts | 83° |
| 2026-04-26 09:30 | 43.65630 | 123.86747 | 32038 ft | 507 kts | 83° |
| 2026-04-26 09:30 | 43.65915 | 123.91537 | 31528 ft | 510 kts | 83° |
| 2026-04-26 09:30 | 43.66205 | 123.96442 | 30979 ft | 515 kts | 83° |
| 2026-04-26 09:31 | 43.66496 | 124.01406 | 30342 ft | 516 kts | 83° |
| 2026-04-26 09:31 | 43.66685 | 124.04649 | 29905 ft | 516 kts | 83° |
| 2026-04-26 09:31 | 43.67064 | 124.11216 | 29006 ft | 513 kts | 83° |
| 2026-04-26 09:31 | 43.67342 | 124.16073 | 28342 ft | 511 kts | 83° |
| 2026-04-26 09:32 | 43.67620 | 124.20974 | 27669 ft | 507 kts | 83° |
| 2026-04-26 09:32 | 43.67660 | 124.25796 | 26998 ft | 505 kts | 92° |
| 2026-04-26 09:32 | 43.67183 | 124.30505 | 26339 ft | 502 kts | 102° |
| 2026-04-26 09:32 | 43.66192 | 124.35094 | 25668 ft | 497 kts | 110° |
| 2026-04-26 09:33 | 43.64907 | 124.39500 | 24983 ft | 493 kts | 112° |
| 2026-04-26 09:33 | 43.63650 | 124.43829 | 24306 ft | 488 kts | 108° |
| 2026-04-26 09:33 | 43.62802 | 124.48342 | 23617 ft | 483 kts | 98° |
| 2026-04-26 09:33 | 43.62465 | 124.52889 | 22936 ft | 476 kts | 89° |
| 2026-04-26 09:34 | 43.62581 | 124.57426 | 22261 ft | 470 kts | 83° |
| 2026-04-26 09:34 | 43.62830 | 124.61832 | 21649 ft | 465 kts | 82° |
| 2026-04-26 09:34 | 43.63089 | 124.66256 | 21028 ft | 459 kts | 83° |
| 2026-04-26 09:34 | 43.63344 | 124.70597 | 20414 ft | 454 kts | 83° |
| 2026-04-26 09:35 | 43.63597 | 124.74906 | 19866 ft | 448 kts | 82° |
| 2026-04-26 09:35 | 43.63844 | 124.79094 | 19345 ft | 441 kts | 82° |
| 2026-04-26 09:35 | 43.64088 | 124.83263 | 18820 ft | 435 kts | 82° |
| 2026-04-26 09:35 | 43.64331 | 124.87399 | 18338 ft | 428 kts | 82° |
| 2026-04-26 09:36 | 43.64567 | 124.91464 | 17933 ft | 420 kts | 82° |
| 2026-04-26 09:36 | 43.64791 | 124.95416 | 17556 ft | 411 kts | 82° |
| 2026-04-26 09:36 | 43.64863 | 124.96713 | 17431 ft | 409 kts | 83° |
| 2026-04-26 09:36 | 43.65222 | 125.03119 | 16813 ft | 396 kts | 82° |
| 2026-04-26 09:37 | 43.65435 | 125.06862 | 16435 ft | 390 kts | 83° |
| 2026-04-26 09:37 | 43.65642 | 125.10534 | 16060 ft | 383 kts | 83° |
| 2026-04-26 09:37 | 43.65845 | 125.14159 | 15686 ft | 377 kts | 83° |
| 2026-04-26 09:37 | 43.66047 | 125.17773 | 15305 ft | 372 kts | 83° |
| 2026-04-26 09:38 | 43.66243 | 125.21300 | 14931 ft | 367 kts | 83° |
| 2026-04-26 09:38 | 43.66435 | 125.24770 | 14556 ft | 362 kts | 83° |
| 2026-04-26 09:38 | 43.66625 | 125.28226 | 14178 ft | 357 kts | 83° |
| 2026-04-26 09:38 | 43.66833 | 125.31626 | 13830 ft | 351 kts | 79° |
| 2026-04-26 09:39 | 43.67315 | 125.34805 | 13755 ft | 335 kts | 70° |
| 2026-04-26 09:39 | 43.68108 | 125.37773 | 13753 ft | 322 kts | 62° |
| 2026-04-26 09:39 | 43.69159 | 125.40463 | 13748 ft | 318 kts | 53° |
| 2026-04-26 09:39 | 43.70461 | 125.42930 | 13577 ft | 317 kts | 45° |
| 2026-04-26 09:40 | 43.71889 | 125.45232 | 13224 ft | 316 kts | 45° |
| 2026-04-26 09:40 | 43.73315 | 125.47514 | 12851 ft | 314 kts | 45° |
| 2026-04-26 09:40 | 43.74735 | 125.49783 | 12518 ft | 311 kts | 45° |
| 2026-04-26 09:40 | 43.76148 | 125.52041 | 12184 ft | 307 kts | 45° |
| 2026-04-26 09:41 | 43.77531 | 125.54250 | 11867 ft | 304 kts | 45° |
| 2026-04-26 09:41 | 43.80313 | 125.58697 | 11197 ft | 298 kts | 45° |
| 2026-04-26 09:41 | 43.81677 | 125.60880 | 10868 ft | 295 kts | 45° |
| 2026-04-26 09:42 | 43.83018 | 125.63029 | 10538 ft | 293 kts | 46° |
| 2026-04-26 09:42 | 43.84325 | 125.65125 | 10205 ft | 291 kts | 47° |
| 2026-04-26 09:42 | 43.85643 | 125.67239 | 9861 ft | 288 kts | 47° |
| 2026-04-26 09:42 | 43.86084 | 125.67947 | 9752 ft | 288 kts | 47° |